Terminal Aerodrome Forecast
Issued by NWS

Home | Current Version | Previous Version | Graphics & Text | Print | Product List | Glossary On
Versions: 1 2 3 4 5 6 7 8 9 10 11 12 13 14 15 16 17 18 19 20 21 22 23 24
000
FTUS43 KABR 010400 AAA
TAFATY
TAF AMD
KATY 010405Z 0104/0124 18017G29KT P6SM SCT015
     FM010800 22012KT P6SM BKN009
     FM011400 27012KT P6SM SCT035=

USA.gov is the U.S. government's official web portal to all federal, state and local government web resources and services.